sensor_id;sensor_type;location;lat;lon;timestamp;P1;durP1;ratioP1;P2;durP2;ratioP2
61627;SDS011;55193;52.102;5.242;2022-08-14T00:01:36;7.7;;;5.7;;
61627;SDS011;55193;52.102;5.242;2022-08-14T00:03:24;7.0;;;5.6;;
61627;SDS011;55193;52.102;5.242;2022-08-14T00:05:14;7.5;;;5.8;;
61627;SDS011;55193;52.102;5.242;2022-08-14T00:07:06;6.8;;;5.8;;
61627;SDS011;55193;52.102;5.242;2022-08-14T00:10:41;7.7;;;6.2;;
61627;SDS011;55193;52.102;5.242;2022-08-14T00:12:30;6.7;;;5.9;;
61627;SDS011;55193;52.102;5.242;2022-08-14T00:14:20;9.4;;;6.4;;
61627;SDS011;55193;52.102;5.242;2022-08-14T00:16:06;8.5;;;6.6;;
61627;SDS011;55193;52.102;5.242;2022-08-14T00:17:54;8.5;;;6.4;;
61627;SDS011;55193;52.102;5.242;2022-08-14T00:19:42;9.1;;;6.0;;
61627;SDS011;55193;52.102;5.242;2022-08-14T00:23:16;8.5;;;6.2;;
61627;SDS011;55193;52.102;5.242;2022-08-14T00:25:04;8.4;;;6.5;;
61627;SDS011;55193;52.102;5.242;2022-08-14T00:26:52;7.9;;;6.4;;
61627;SDS011;55193;52.102;5.242;2022-08-14T00:28:39;7.0;;;6.3;;
61627;SDS011;55193;52.102;5.242;2022-08-14T00:30:25;6.9;;;6.3;;
61627;SDS011;55193;52.102;5.242;2022-08-14T00:32:12;6.8;;;6.1;;
61627;SDS011;55193;52.102;5.242;2022-08-14T00:35:46;9.71;;;6.6;;
61627;SDS011;55193;52.102;5.242;2022-08-14T00:37:34;9.4;;;6.5;;
61627;SDS011;55193;52.102;5.242;2022-08-14T00:39:24;10.1;;;6.9;;
61627;SDS011;55193;52.102;5.242;2022-08-14T00:41:11;12.6;;;7.1;;
61627;SDS011;55193;52.102;5.242;2022-08-14T00:42:58;7.9;;;6.6;;
61627;SDS011;55193;52.102;5.242;2022-08-14T00:44:44;8.4;;;7.3;;
61627;SDS011;55193;52.102;5.242;2022-08-14T00:48:19;8.0;;;6.9;;
61627;SDS011;55193;52.102;5.242;2022-08-14T00:50:07;8.71;;;7.1;;
61627;SDS011;55193;52.102;5.242;2022-08-14T00:51:58;8.0;;;7.2;;
61627;SDS011;55193;52.102;5.242;2022-08-14T00:53:49;8.2;;;7.1;;
61627;SDS011;55193;52.102;5.242;2022-08-14T00:55:36;8.6;;;7.2;;
61627;SDS011;55193;52.102;5.242;2022-08-14T00:57:29;13.3;;;7.4;;
61627;SDS011;55193;52.102;5.242;2022-08-14T00:59:18;8.31;;;7.2;;
61627;SDS011;55193;52.102;5.242;2022-08-14T01:02:56;10.21;;;7.6;;
61627;SDS011;55193;52.102;5.242;2022-08-14T01:04:44;8.71;;;7.8;;
61627;SDS011;55193;52.102;5.242;2022-08-14T01:06:34;9.6;;;8.2;;
61627;SDS011;55193;52.102;5.242;2022-08-14T01:08:22;9.1;;;7.8;;
61627;SDS011;55193;52.102;5.242;2022-08-14T01:10:11;8.71;;;7.8;;
61627;SDS011;55193;52.102;5.242;2022-08-14T01:11:57;9.4;;;8.1;;
61627;SDS011;55193;52.102;5.242;2022-08-14T01:15:34;10.5;;;8.1;;
61627;SDS011;55193;52.102;5.242;2022-08-14T01:17:21;8.71;;;7.8;;
61627;SDS011;55193;52.102;5.242;2022-08-14T01:22:12;9.9;;;7.7;;
61627;SDS011;55193;52.102;5.242;2022-08-14T01:23:59;9.81;;;7.8;;
61627;SDS011;55193;52.102;5.242;2022-08-14T01:25:48;8.9;;;7.7;;
61627;SDS011;55193;52.102;5.242;2022-08-14T01:27:38;9.21;;;7.9;;
61627;SDS011;55193;52.102;5.242;2022-08-14T01:29:31;8.6;;;7.7;;
61627;SDS011;55193;52.102;5.242;2022-08-14T01:31:22;10.5;;;7.8;;
61627;SDS011;55193;52.102;5.242;2022-08-14T01:33:11;9.5;;;7.8;;
61627;SDS011;55193;52.102;5.242;2022-08-14T01:34:58;8.81;;;7.9;;
61627;SDS011;55193;52.102;5.242;2022-08-14T01:38:33;9.81;;;8.6;;
61627;SDS011;55193;52.102;5.242;2022-08-14T01:40:21;8.6;;;7.7;;
61627;SDS011;55193;52.102;5.242;2022-08-14T01:42:10;11.2;;;8.1;;
61627;SDS011;55193;52.102;5.242;2022-08-14T01:44:00;10.0;;;7.9;;
61627;SDS011;55193;52.102;5.242;2022-08-14T01:45:50;11.4;;;8.5;;
61627;SDS011;55193;52.102;5.242;2022-08-14T01:47:38;9.5;;;8.4;;
61627;SDS011;55193;52.102;5.242;2022-08-14T01:49:30;8.71;;;7.7;;
61627;SDS011;55193;52.102;5.242;2022-08-14T01:53:09;9.0;;;8.2;;
61627;SDS011;55193;52.102;5.242;2022-08-14T01:54:56;8.81;;;8.0;;
61627;SDS011;55193;52.102;5.242;2022-08-14T01:56:43;9.5;;;8.5;;
61627;SDS011;55193;52.102;5.242;2022-08-14T01:58:30;9.71;;;8.2;;
61627;SDS011;55193;52.102;5.242;2022-08-14T02:00:17;11.4;;;8.4;;
61627;SDS011;55193;52.102;5.242;2022-08-14T02:02:11;10.4;;;8.31;;
61627;SDS011;55193;52.102;5.242;2022-08-14T02:05:45;10.8;;;8.31;;
61627;SDS011;55193;52.102;5.242;2022-08-14T02:07:35;11.7;;;8.9;;
61627;SDS011;55193;52.102;5.242;2022-08-14T02:09:23;9.21;;;8.31;;
61627;SDS011;55193;52.102;5.242;2022-08-14T02:11:25;9.0;;;8.1;;
61627;SDS011;55193;52.102;5.242;2022-08-14T02:15:01;9.5;;;8.5;;
61627;SDS011;55193;52.102;5.242;2022-08-14T02:16:52;12.1;;;8.5;;
61627;SDS011;55193;52.102;5.242;2022-08-14T02:20:27;9.5;;;8.5;;
61627;SDS011;55193;52.102;5.242;2022-08-14T02:22:17;9.6;;;8.71;;
61627;SDS011;55193;52.102;5.242;2022-08-14T02:24:04;11.7;;;8.71;;
61627;SDS011;55193;52.102;5.242;2022-08-14T02:25:52;11.1;;;8.71;;
61627;SDS011;55193;52.102;5.242;2022-08-14T02:27:41;10.21;;;8.2;;
61627;SDS011;55193;52.102;5.242;2022-08-14T02:29:29;10.0;;;8.4;;
61627;SDS011;55193;52.102;5.242;2022-08-14T02:31:16;11.6;;;8.6;;
61627;SDS011;55193;52.102;5.242;2022-08-14T02:34:52;9.81;;;8.81;;
61627;SDS011;55193;52.102;5.242;2022-08-14T02:36:40;10.4;;;8.81;;
61627;SDS011;55193;52.102;5.242;2022-08-14T02:38:27;9.81;;;8.81;;
61627;SDS011;55193;52.102;5.242;2022-08-14T02:40:14;9.4;;;8.4;;
61627;SDS011;55193;52.102;5.242;2022-08-14T02:42:01;11.1;;;8.6;;
61627;SDS011;55193;52.102;5.242;2022-08-14T02:43:49;9.81;;;8.81;;
61627;SDS011;55193;52.102;5.242;2022-08-14T02:47:24;9.6;;;8.6;;
61627;SDS011;55193;52.102;5.242;2022-08-14T02:49:12;12.4;;;8.81;;
61627;SDS011;55193;52.102;5.242;2022-08-14T02:51:00;11.2;;;8.71;;
61627;SDS011;55193;52.102;5.242;2022-08-14T02:52:52;11.9;;;9.0;;
61627;SDS011;55193;52.102;5.242;2022-08-14T02:54:40;10.6;;;9.0;;
61627;SDS011;55193;52.102;5.242;2022-08-14T02:56:26;10.21;;;9.1;;
61627;SDS011;55193;52.102;5.242;2022-08-14T03:00:03;11.6;;;9.21;;
61627;SDS011;55193;52.102;5.242;2022-08-14T03:01:53;10.0;;;9.0;;
61627;SDS011;55193;52.102;5.242;2022-08-14T03:03:40;11.5;;;9.0;;
61627;SDS011;55193;52.102;5.242;2022-08-14T03:05:29;9.6;;;8.6;;
61627;SDS011;55193;52.102;5.242;2022-08-14T03:07:17;10.21;;;9.1;;
61627;SDS011;55193;52.102;5.242;2022-08-14T03:09:04;9.9;;;8.9;;
61627;SDS011;55193;52.102;5.242;2022-08-14T03:12:38;10.4;;;9.31;;
61627;SDS011;55193;52.102;5.242;2022-08-14T03:14:24;10.8;;;9.31;;
61627;SDS011;55193;52.102;5.242;2022-08-14T03:16:14;10.6;;;9.5;;
61627;SDS011;55193;52.102;5.242;2022-08-14T03:18:09;10.4;;;9.31;;
61627;SDS011;55193;52.102;5.242;2022-08-14T03:19:56;10.4;;;9.31;;
61627;SDS011;55193;52.102;5.242;2022-08-14T03:21:44;10.8;;;9.21;;
61627;SDS011;55193;52.102;5.242;2022-08-14T03:25:21;10.3;;;9.31;;
61627;SDS011;55193;52.102;5.242;2022-08-14T03:27:08;9.9;;;9.0;;
61627;SDS011;55193;52.102;5.242;2022-08-14T03:29:01;10.9;;;9.81;;
61627;SDS011;55193;52.102;5.242;2022-08-14T03:30:50;10.4;;;9.31;;
61627;SDS011;55193;52.102;5.242;2022-08-14T03:32:37;10.0;;;9.0;;
61627;SDS011;55193;52.102;5.242;2022-08-14T03:34:23;13.9;;;9.71;;
61627;SDS011;55193;52.102;5.242;2022-08-14T03:36:14;12.4;;;10.0;;
61627;SDS011;55193;52.102;5.242;2022-08-14T03:39:52;11.1;;;9.9;;
61627;SDS011;55193;52.102;5.242;2022-08-14T03:41:40;11.8;;;9.81;;
61627;SDS011;55193;52.102;5.242;2022-08-14T03:43:26;11.1;;;10.0;;
61627;SDS011;55193;52.102;5.242;2022-08-14T03:45:14;11.1;;;10.0;;
61627;SDS011;55193;52.102;5.242;2022-08-14T03:47:02;11.4;;;9.9;;
61627;SDS011;55193;52.102;5.242;2022-08-14T03:48:49;13.7;;;10.0;;
61627;SDS011;55193;52.102;5.242;2022-08-14T03:52:24;12.1;;;9.81;;
61627;SDS011;55193;52.102;5.242;2022-08-14T03:54:11;11.5;;;10.3;;
61627;SDS011;55193;52.102;5.242;2022-08-14T03:55:58;11.7;;;10.5;;
61627;SDS011;55193;52.102;5.242;2022-08-14T03:57:46;11.6;;;10.5;;
61627;SDS011;55193;52.102;5.242;2022-08-14T03:59:33;12.8;;;10.3;;
61627;SDS011;55193;52.102;5.242;2022-08-14T04:01:23;11.4;;;10.21;;
61627;SDS011;55193;52.102;5.242;2022-08-14T04:04:59;15.0;;;10.6;;
61627;SDS011;55193;52.102;5.242;2022-08-14T04:06:46;12.3;;;10.5;;
61627;SDS011;55193;52.102;5.242;2022-08-14T04:08:33;12.1;;;10.8;;
61627;SDS011;55193;52.102;5.242;2022-08-14T04:10:21;13.1;;;10.7;;
61627;SDS011;55193;52.102;5.242;2022-08-14T04:12:08;11.5;;;10.3;;
61627;SDS011;55193;52.102;5.242;2022-08-14T04:13:55;11.5;;;10.21;;
61627;SDS011;55193;52.102;5.242;2022-08-14T04:17:31;13.3;;;11.1;;
61627;SDS011;55193;52.102;5.242;2022-08-14T04:19:22;12.1;;;10.9;;
61627;SDS011;55193;52.102;5.242;2022-08-14T04:21:09;11.6;;;10.6;;
61627;SDS011;55193;52.102;5.242;2022-08-14T04:22:57;13.7;;;10.8;;
61627;SDS011;55193;52.102;5.242;2022-08-14T04:24:44;14.2;;;11.4;;
61627;SDS011;55193;52.102;5.242;2022-08-14T04:26:31;21.1;;;12.1;;
61627;SDS011;55193;52.102;5.242;2022-08-14T04:30:07;15.0;;;12.1;;
61627;SDS011;55193;52.102;5.242;2022-08-14T04:31:55;13.6;;;11.0;;
61627;SDS011;55193;52.102;5.242;2022-08-14T04:33:42;12.9;;;11.5;;
61627;SDS011;55193;52.102;5.242;2022-08-14T04:35:29;14.0;;;11.7;;
61627;SDS011;55193;52.102;5.242;2022-08-14T04:43:39;13.9;;;11.9;;
61627;SDS011;55193;52.102;5.242;2022-08-14T04:45:31;13.1;;;11.8;;
61627;SDS011;55193;52.102;5.242;2022-08-14T04:48:26;13.3;;;12.0;;
61627;SDS011;55193;52.102;5.242;2022-08-14T04:50:13;23.2;;;13.9;;
61627;SDS011;55193;52.102;5.242;2022-08-14T04:52:03;13.9;;;11.8;;
61627;SDS011;55193;52.102;5.242;2022-08-14T04:53:50;20.11;;;13.3;;
61627;SDS011;55193;52.102;5.242;2022-08-14T04:55:39;19.11;;;12.0;;
61627;SDS011;55193;52.102;5.242;2022-08-14T04:59:13;14.5;;;11.8;;
61627;SDS011;55193;52.102;5.242;2022-08-14T05:01:01;15.0;;;12.3;;
61627;SDS011;55193;52.102;5.242;2022-08-14T05:02:52;14.2;;;12.3;;
61627;SDS011;55193;52.102;5.242;2022-08-14T05:04:40;19.61;;;13.5;;
61627;SDS011;55193;52.102;5.242;2022-08-14T05:06:28;15.7;;;12.2;;
61627;SDS011;55193;52.102;5.242;2022-08-14T05:08:15;14.5;;;12.4;;
61627;SDS011;55193;52.102;5.242;2022-08-14T05:11:52;14.1;;;12.7;;
61627;SDS011;55193;52.102;5.242;2022-08-14T05:13:39;13.4;;;12.0;;
61627;SDS011;55193;52.102;5.242;2022-08-14T05:15:29;15.2;;;12.7;;
61627;SDS011;55193;52.102;5.242;2022-08-14T05:17:17;13.8;;;12.2;;
61627;SDS011;55193;52.102;5.242;2022-08-14T05:19:05;14.2;;;12.4;;
61627;SDS011;55193;52.102;5.242;2022-08-14T05:20:54;13.8;;;12.5;;
61627;SDS011;55193;52.102;5.242;2022-08-14T05:24:30;18.61;;;12.9;;
61627;SDS011;55193;52.102;5.242;2022-08-14T05:26:20;20.2;;;13.2;;
61627;SDS011;55193;52.102;5.242;2022-08-14T05:28:07;19.2;;;12.8;;
61627;SDS011;55193;52.102;5.242;2022-08-14T05:29:55;14.5;;;12.3;;
61627;SDS011;55193;52.102;5.242;2022-08-14T05:31:42;13.1;;;11.9;;
61627;SDS011;55193;52.102;5.242;2022-08-14T05:33:28;13.3;;;12.0;;
61627;SDS011;55193;52.102;5.242;2022-08-14T05:37:06;15.4;;;12.3;;
61627;SDS011;55193;52.102;5.242;2022-08-14T05:38:53;15.4;;;12.3;;
61627;SDS011;55193;52.102;5.242;2022-08-14T05:40:40;15.1;;;12.3;;
61627;SDS011;55193;52.102;5.242;2022-08-14T05:42:28;13.9;;;11.6;;
61627;SDS011;55193;52.102;5.242;2022-08-14T05:44:15;13.3;;;11.9;;
61627;SDS011;55193;52.102;5.242;2022-08-14T05:46:02;15.0;;;12.1;;
61627;SDS011;55193;52.102;5.242;2022-08-14T05:49:36;18.8;;;13.3;;
61627;SDS011;55193;52.102;5.242;2022-08-14T05:51:23;16.8;;;12.3;;
61627;SDS011;55193;52.102;5.242;2022-08-14T05:53:11;14.1;;;12.6;;
61627;SDS011;55193;52.102;5.242;2022-08-14T05:54:59;14.1;;;11.9;;
61627;SDS011;55193;52.102;5.242;2022-08-14T05:56:45;13.0;;;11.6;;
61627;SDS011;55193;52.102;5.242;2022-08-14T05:58:32;16.2;;;12.8;;
61627;SDS011;55193;52.102;5.242;2022-08-14T06:02:09;15.9;;;12.2;;
61627;SDS011;55193;52.102;5.242;2022-08-14T06:03:56;14.2;;;11.4;;
61627;SDS011;55193;52.102;5.242;2022-08-14T06:05:43;13.0;;;11.4;;
61627;SDS011;55193;52.102;5.242;2022-08-14T06:07:34;15.2;;;12.2;;
61627;SDS011;55193;52.102;5.242;2022-08-14T06:09:21;12.8;;;11.4;;
61627;SDS011;55193;52.102;5.242;2022-08-14T06:11:09;14.8;;;11.7;;
61627;SDS011;55193;52.102;5.242;2022-08-14T06:14:43;15.6;;;11.6;;
61627;SDS011;55193;52.102;5.242;2022-08-14T06:16:29;12.8;;;11.5;;
61627;SDS011;55193;52.102;5.242;2022-08-14T06:18:16;14.1;;;12.6;;
61627;SDS011;55193;52.102;5.242;2022-08-14T06:20:03;14.1;;;12.6;;
61627;SDS011;55193;52.102;5.242;2022-08-14T06:21:50;14.4;;;11.5;;
61627;SDS011;55193;52.102;5.242;2022-08-14T06:23:37;12.2;;;10.9;;
61627;SDS011;55193;52.102;5.242;2022-08-14T06:27:11;12.9;;;11.5;;
61627;SDS011;55193;52.102;5.242;2022-08-14T06:28:58;13.1;;;11.8;;
61627;SDS011;55193;52.102;5.242;2022-08-14T06:30:45;12.6;;;11.3;;
61627;SDS011;55193;52.102;5.242;2022-08-14T06:32:33;12.4;;;11.1;;
61627;SDS011;55193;52.102;5.242;2022-08-14T06:34:20;12.5;;;10.4;;
61627;SDS011;55193;52.102;5.242;2022-08-14T06:36:07;13.8;;;11.6;;
61627;SDS011;55193;52.102;5.242;2022-08-14T06:39:45;12.9;;;10.5;;
61627;SDS011;55193;52.102;5.242;2022-08-14T06:41:33;13.3;;;10.9;;
61627;SDS011;55193;52.102;5.242;2022-08-14T06:43:19;11.7;;;10.5;;
61627;SDS011;55193;52.102;5.242;2022-08-14T06:45:07;14.8;;;10.6;;
61627;SDS011;55193;52.102;5.242;2022-08-14T06:46:55;13.4;;;10.6;;
61627;SDS011;55193;52.102;5.242;2022-08-14T06:48:41;11.4;;;10.3;;
61627;SDS011;55193;52.102;5.242;2022-08-14T06:52:16;14.4;;;10.8;;
61627;SDS011;55193;52.102;5.242;2022-08-14T06:54:03;11.2;;;10.1;;
61627;SDS011;55193;52.102;5.242;2022-08-14T06:55:49;11.4;;;10.21;;
61627;SDS011;55193;52.102;5.242;2022-08-14T06:57:38;10.7;;;9.6;;
61627;SDS011;55193;52.102;5.242;2022-08-14T06:59:27;11.0;;;9.81;;
61627;SDS011;55193;52.102;5.242;2022-08-14T07:07:34;12.0;;;9.6;;
61627;SDS011;55193;52.102;5.242;2022-08-14T07:11:10;11.6;;;9.9;;
61627;SDS011;55193;52.102;5.242;2022-08-14T07:12:58;11.8;;;10.5;;
61627;SDS011;55193;52.102;5.242;2022-08-14T07:14:45;11.7;;;10.4;;
61627;SDS011;55193;52.102;5.242;2022-08-14T07:16:32;10.4;;;9.31;;
61627;SDS011;55193;52.102;5.242;2022-08-14T07:18:20;11.8;;;10.6;;
61627;SDS011;55193;52.102;5.242;2022-08-14T07:20:09;12.4;;;10.0;;
61627;SDS011;55193;52.102;5.242;2022-08-14T07:23:44;10.3;;;9.21;;
61627;SDS011;55193;52.102;5.242;2022-08-14T07:25:32;10.7;;;9.6;;
61627;SDS011;55193;52.102;5.242;2022-08-14T07:27:20;13.1;;;10.1;;
61627;SDS011;55193;52.102;5.242;2022-08-14T07:29:07;10.5;;;9.5;;
61627;SDS011;55193;52.102;5.242;2022-08-14T07:30:56;11.5;;;9.6;;
61627;SDS011;55193;52.102;5.242;2022-08-14T07:32:45;12.5;;;9.5;;
61627;SDS011;55193;52.102;5.242;2022-08-14T07:36:20;10.3;;;9.21;;
61627;SDS011;55193;52.102;5.242;2022-08-14T07:38:07;10.9;;;9.81;;
61627;SDS011;55193;52.102;5.242;2022-08-14T07:40:03;11.2;;;9.9;;
61627;SDS011;55193;52.102;5.242;2022-08-14T07:41:50;10.4;;;9.4;;
61627;SDS011;55193;52.102;5.242;2022-08-14T07:43:38;10.7;;;9.6;;
61627;SDS011;55193;52.102;5.242;2022-08-14T07:45:26;10.4;;;9.4;;
61627;SDS011;55193;52.102;5.242;2022-08-14T07:47:16;10.5;;;9.4;;
61627;SDS011;55193;52.102;5.242;2022-08-14T07:50:50;10.21;;;8.9;;
61627;SDS011;55193;52.102;5.242;2022-08-14T07:52:39;10.21;;;9.21;;
61627;SDS011;55193;52.102;5.242;2022-08-14T07:54:27;16.0;;;10.21;;
61627;SDS011;55193;52.102;5.242;2022-08-14T07:56:15;11.6;;;10.4;;
61627;SDS011;55193;52.102;5.242;2022-08-14T07:58:02;12.0;;;9.6;;
61627;SDS011;55193;52.102;5.242;2022-08-14T07:59:50;10.6;;;9.6;;
61627;SDS011;55193;52.102;5.242;2022-08-14T08:03:26;10.1;;;9.1;;
61627;SDS011;55193;52.102;5.242;2022-08-14T08:05:19;10.7;;;9.6;;
61627;SDS011;55193;52.102;5.242;2022-08-14T08:07:07;10.6;;;9.5;;
61627;SDS011;55193;52.102;5.242;2022-08-14T08:08:56;11.3;;;9.5;;
61627;SDS011;55193;52.102;5.242;2022-08-14T08:10:45;12.3;;;9.4;;
61627;SDS011;55193;52.102;5.242;2022-08-14T08:12:33;10.3;;;8.9;;
61627;SDS011;55193;52.102;5.242;2022-08-14T08:16:07;11.6;;;8.81;;
61627;SDS011;55193;52.102;5.242;2022-08-14T08:17:54;13.2;;;9.1;;
61627;SDS011;55193;52.102;5.242;2022-08-14T08:19:41;9.81;;;8.81;;
61627;SDS011;55193;52.102;5.242;2022-08-14T08:21:29;10.0;;;9.0;;
61627;SDS011;55193;52.102;5.242;2022-08-14T08:23:16;10.6;;;9.1;;
61627;SDS011;55193;52.102;5.242;2022-08-14T08:25:06;11.2;;;9.5;;
61627;SDS011;55193;52.102;5.242;2022-08-14T08:28:40;12.1;;;9.6;;
61627;SDS011;55193;52.102;5.242;2022-08-14T08:30:27;9.6;;;8.71;;
61627;SDS011;55193;52.102;5.242;2022-08-14T08:32:17;11.6;;;9.6;;
61627;SDS011;55193;52.102;5.242;2022-08-14T08:34:04;10.5;;;9.1;;
61627;SDS011;55193;52.102;5.242;2022-08-14T08:35:53;10.0;;;9.0;;
61627;SDS011;55193;52.102;5.242;2022-08-14T08:37:43;11.1;;;9.4;;
61627;SDS011;55193;52.102;5.242;2022-08-14T08:39:41;10.21;;;8.9;;
61627;SDS011;55193;52.102;5.242;2022-08-14T08:43:26;12.3;;;9.1;;
61627;SDS011;55193;52.102;5.242;2022-08-14T08:45:16;10.4;;;9.31;;
61627;SDS011;55193;52.102;5.242;2022-08-14T08:47:06;10.5;;;9.0;;
61627;SDS011;55193;52.102;5.242;2022-08-14T08:48:54;10.6;;;9.31;;
61627;SDS011;55193;52.102;5.242;2022-08-14T08:50:41;9.5;;;8.5;;
61627;SDS011;55193;52.102;5.242;2022-08-14T08:52:29;11.5;;;9.4;;
61627;SDS011;55193;52.102;5.242;2022-08-14T08:54:15;9.9;;;8.9;;
61627;SDS011;55193;52.102;5.242;2022-08-14T08:57:52;12.1;;;8.81;;
61627;SDS011;55193;52.102;5.242;2022-08-14T08:59:40;9.6;;;8.6;;
61627;SDS011;55193;52.102;5.242;2022-08-14T09:01:28;10.1;;;8.81;;
61627;SDS011;55193;52.102;5.242;2022-08-14T09:03:17;8.4;;;7.6;;
61627;SDS011;55193;52.102;5.242;2022-08-14T09:05:06;10.3;;;8.4;;
61627;SDS011;55193;52.102;5.242;2022-08-14T09:06:53;9.6;;;8.6;;
61627;SDS011;55193;52.102;5.242;2022-08-14T09:10:30;9.4;;;8.4;;
61627;SDS011;55193;52.102;5.242;2022-08-14T09:12:18;10.3;;;8.2;;
61627;SDS011;55193;52.102;5.242;2022-08-14T09:14:05;11.3;;;8.31;;
61627;SDS011;55193;52.102;5.242;2022-08-14T09:15:53;8.31;;;7.2;;
61627;SDS011;55193;52.102;5.242;2022-08-14T09:17:41;9.4;;;7.8;;
61627;SDS011;55193;52.102;5.242;2022-08-14T09:19:30;9.81;;;7.8;;
61627;SDS011;55193;52.102;5.242;2022-08-14T09:23:06;8.2;;;7.3;;
61627;SDS011;55193;52.102;5.242;2022-08-14T09:24:54;9.31;;;7.2;;
61627;SDS011;55193;52.102;5.242;2022-08-14T09:26:42;7.9;;;7.1;;
61627;SDS011;55193;52.102;5.242;2022-08-14T09:28:30;8.2;;;7.3;;
61627;SDS011;55193;52.102;5.242;2022-08-14T09:30:17;9.31;;;7.3;;
61627;SDS011;55193;52.102;5.242;2022-08-14T09:32:03;9.0;;;7.5;;
61627;SDS011;55193;52.102;5.242;2022-08-14T09:33:56;9.4;;;7.9;;
61627;SDS011;55193;52.102;5.242;2022-08-14T09:38:04;9.1;;;7.3;;
61627;SDS011;55193;52.102;5.242;2022-08-14T09:42:15;8.0;;;6.6;;
61627;SDS011;55193;52.102;5.242;2022-08-14T09:45:27;9.0;;;6.6;;
61627;SDS011;55193;52.102;5.242;2022-08-14T09:47:20;7.4;;;6.3;;
61627;SDS011;55193;52.102;5.242;2022-08-14T09:49:07;7.3;;;6.4;;
61627;SDS011;55193;52.102;5.242;2022-08-14T09:50:55;11.6;;;5.9;;
61627;SDS011;55193;52.102;5.242;2022-08-14T09:52:45;7.1;;;5.6;;
61627;SDS011;55193;52.102;5.242;2022-08-14T09:56:43;6.3;;;5.7;;
61627;SDS011;55193;52.102;5.242;2022-08-14T09:58:35;7.1;;;5.8;;
61627;SDS011;55193;52.102;5.242;2022-08-14T10:00:34;5.7;;;5.2;;
61627;SDS011;55193;52.102;5.242;2022-08-14T10:02:30;7.3;;;6.3;;
61627;SDS011;55193;52.102;5.242;2022-08-14T10:04:20;6.5;;;5.8;;
61627;SDS011;55193;52.102;5.242;2022-08-14T10:06:09;6.8;;;6.1;;
61627;SDS011;55193;52.102;5.242;2022-08-14T10:08:01;8.1;;;6.1;;
61627;SDS011;55193;52.102;5.242;2022-08-14T10:09:49;8.2;;;6.1;;
61627;SDS011;55193;52.102;5.242;2022-08-14T10:11:37;9.0;;;5.9;;
61627;SDS011;55193;52.102;5.242;2022-08-14T10:15:14;6.0;;;5.4;;
61627;SDS011;55193;52.102;5.242;2022-08-14T10:17:04;7.7;;;5.7;;
61627;SDS011;55193;52.102;5.242;2022-08-14T10:19:00;6.7;;;5.5;;
61627;SDS011;55193;52.102;5.242;2022-08-14T10:20:52;6.0;;;5.4;;
61627;SDS011;55193;52.102;5.242;2022-08-14T10:22:41;7.2;;;5.4;;
61627;SDS011;55193;52.102;5.242;2022-08-14T10:24:30;5.9;;;5.3;;
61627;SDS011;55193;52.102;5.242;2022-08-14T10:26:23;5.4;;;4.91;;
61627;SDS011;55193;52.102;5.242;2022-08-14T10:30:10;6.1;;;5.2;;
61627;SDS011;55193;52.102;5.242;2022-08-14T10:32:00;7.0;;;5.3;;
61627;SDS011;55193;52.102;5.242;2022-08-14T10:34:04;14.0;;;5.6;;
61627;SDS011;55193;52.102;5.242;2022-08-14T10:35:52;5.7;;;5.2;;
61627;SDS011;55193;52.102;5.242;2022-08-14T10:37:41;5.7;;;5.2;;
61627;SDS011;55193;52.102;5.242;2022-08-14T10:39:34;6.8;;;6.1;;
61627;SDS011;55193;52.102;5.242;2022-08-14T10:41:32;8.31;;;5.9;;
61627;SDS011;55193;52.102;5.242;2022-08-14T10:43:24;6.4;;;5.8;;
61627;SDS011;55193;52.102;5.242;2022-08-14T10:45:18;6.2;;;5.6;;
61627;SDS011;55193;52.102;5.242;2022-08-14T10:47:09;6.0;;;5.4;;
61627;SDS011;55193;52.102;5.242;2022-08-14T10:50:50;6.3;;;5.7;;
61627;SDS011;55193;52.102;5.242;2022-08-14T10:52:38;6.9;;;5.3;;
61627;SDS011;55193;52.102;5.242;2022-08-14T10:54:28;7.2;;;4.8;;
61627;SDS011;55193;52.102;5.242;2022-08-14T10:56:26;5.8;;;5.0;;
61627;SDS011;55193;52.102;5.242;2022-08-14T10:58:15;5.9;;;5.3;;
61627;SDS011;55193;52.102;5.242;2022-08-14T11:00:15;7.5;;;5.8;;
61627;SDS011;55193;52.102;5.242;2022-08-14T11:02:14;7.9;;;5.8;;
61627;SDS011;55193;52.102;5.242;2022-08-14T11:04:03;7.5;;;5.9;;
61627;SDS011;55193;52.102;5.242;2022-08-14T11:07:40;6.3;;;5.7;;
61627;SDS011;55193;52.102;5.242;2022-08-14T11:09:38;7.1;;;5.7;;
61627;SDS011;55193;52.102;5.242;2022-08-14T11:11:26;6.5;;;5.8;;
61627;SDS011;55193;52.102;5.242;2022-08-14T11:13:14;7.1;;;5.6;;
61627;SDS011;55193;52.102;5.242;2022-08-14T11:15:03;6.4;;;5.8;;
61627;SDS011;55193;52.102;5.242;2022-08-14T11:16:50;6.4;;;5.8;;
61627;SDS011;55193;52.102;5.242;2022-08-14T11:18:37;7.1;;;5.6;;
61627;SDS011;55193;52.102;5.242;2022-08-14T11:22:17;7.8;;;5.7;;
61627;SDS011;55193;52.102;5.242;2022-08-14T11:24:07;8.1;;;6.2;;
61627;SDS011;55193;52.102;5.242;2022-08-14T11:26:00;6.9;;;6.2;;
61627;SDS011;55193;52.102;5.242;2022-08-14T11:27:49;6.5;;;5.9;;
61627;SDS011;55193;52.102;5.242;2022-08-14T11:29:37;6.9;;;6.2;;
61627;SDS011;55193;52.102;5.242;2022-08-14T11:31:28;6.3;;;5.7;;
61627;SDS011;55193;52.102;5.242;2022-08-14T11:33:20;6.4;;;5.6;;
61627;SDS011;55193;52.102;5.242;2022-08-14T11:37:06;7.0;;;5.8;;
61627;SDS011;55193;52.102;5.242;2022-08-14T11:38:54;5.9;;;5.3;;
61627;SDS011;55193;52.102;5.242;2022-08-14T11:40:42;8.31;;;5.8;;
61627;SDS011;55193;52.102;5.242;2022-08-14T11:42:31;8.31;;;5.8;;
61627;SDS011;55193;52.102;5.242;2022-08-14T11:44:19;7.5;;;5.9;;
61627;SDS011;55193;52.102;5.242;2022-08-14T11:46:05;8.81;;;5.9;;
61627;SDS011;55193;52.102;5.242;2022-08-14T11:47:54;7.5;;;5.4;;
61627;SDS011;55193;52.102;5.242;2022-08-14T11:51:29;6.6;;;5.5;;
61627;SDS011;55193;52.102;5.242;2022-08-14T11:53:17;6.2;;;5.2;;
61627;SDS011;55193;52.102;5.242;2022-08-14T11:55:07;5.9;;;5.3;;
61627;SDS011;55193;52.102;5.242;2022-08-14T11:56:57;7.1;;;4.8;;
61627;SDS011;55193;52.102;5.242;2022-08-14T11:58:48;7.1;;;5.0;;
61627;SDS011;55193;52.102;5.242;2022-08-14T12:00:45;5.3;;;4.7;;
61627;SDS011;55193;52.102;5.242;2022-08-14T12:02:34;6.4;;;4.91;;
61627;SDS011;55193;52.102;5.242;2022-08-14T12:06:09;5.6;;;5.11;;
61627;SDS011;55193;52.102;5.242;2022-08-14T12:07:58;5.7;;;4.61;;
61627;SDS011;55193;52.102;5.242;2022-08-14T12:09:46;5.8;;;5.0;;
61627;SDS011;55193;52.102;5.242;2022-08-14T12:11:41;6.3;;;4.91;;
61627;SDS011;55193;52.102;5.242;2022-08-14T12:13:31;6.8;;;5.3;;
61627;SDS011;55193;52.102;5.242;2022-08-14T12:15:27;5.5;;;5.0;;
61627;SDS011;55193;52.102;5.242;2022-08-14T12:17:15;6.1;;;5.0;;
61627;SDS011;55193;52.102;5.242;2022-08-14T12:20:49;6.2;;;4.91;;
61627;SDS011;55193;52.102;5.242;2022-08-14T12:22:37;5.2;;;4.8;;
61627;SDS011;55193;52.102;5.242;2022-08-14T12:24:27;5.4;;;4.91;;
61627;SDS011;55193;52.102;5.242;2022-08-14T12:26:17;5.3;;;4.8;;
61627;SDS011;55193;52.102;5.242;2022-08-14T12:28:10;8.31;;;4.61;;
61627;SDS011;55193;52.102;5.242;2022-08-14T12:29:58;5.2;;;4.7;;
61627;SDS011;55193;52.102;5.242;2022-08-14T12:31:45;5.3;;;4.8;;
61627;SDS011;55193;52.102;5.242;2022-08-14T12:35:43;6.8;;;4.8;;
61627;SDS011;55193;52.102;5.242;2022-08-14T12:37:31;4.61;;;4.2;;
61627;SDS011;55193;52.102;5.242;2022-08-14T12:39:18;5.6;;;4.5;;
61627;SDS011;55193;52.102;5.242;2022-08-14T12:41:10;4.91;;;4.5;;
61627;SDS011;55193;52.102;5.242;2022-08-14T12:42:59;4.91;;;4.41;;
61627;SDS011;55193;52.102;5.242;2022-08-14T12:44:47;4.8;;;4.3;;
61627;SDS011;55193;52.102;5.242;2022-08-14T12:46:35;6.7;;;4.61;;
61627;SDS011;55193;52.102;5.242;2022-08-14T12:50:16;6.7;;;4.61;;
61627;SDS011;55193;52.102;5.242;2022-08-14T12:52:04;6.6;;;4.91;;
61627;SDS011;55193;52.102;5.242;2022-08-14T12:53:54;6.2;;;5.2;;
61627;SDS011;55193;52.102;5.242;2022-08-14T12:55:42;6.5;;;5.2;;
61627;SDS011;55193;52.102;5.242;2022-08-14T12:57:44;5.5;;;4.91;;
61627;SDS011;55193;52.102;5.242;2022-08-14T12:59:32;5.7;;;5.2;;
61627;SDS011;55193;52.102;5.242;2022-08-14T13:01:21;7.5;;;5.3;;
61627;SDS011;55193;52.102;5.242;2022-08-14T13:03:09;7.7;;;5.9;;
61627;SDS011;55193;52.102;5.242;2022-08-14T13:07:00;7.5;;;5.5;;
61627;SDS011;55193;52.102;5.242;2022-08-14T13:08:53;6.7;;;5.3;;